sensor_id;sensor_type;location;lat;lon;timestamp;pressure;altitude;pressure_sealevel;temperature;humidity
41624;BME280;27319;50.306;18.926;2023-02-28T00:01:30;99369.06;;;-0.48;74.55
41624;BME280;27319;50.306;18.926;2023-02-28T00:04:47;99367.00;;;-0.41;77.81
41624;BME280;27319;50.306;18.926;2023-02-28T00:07:54;99368.94;;;-0.45;75.94
41624;BME280;27319;50.306;18.926;2023-02-28T00:10:55;99362.56;;;-0.41;77.46
41624;BME280;27319;50.306;18.926;2023-02-28T00:13:56;99370.59;;;-0.42;75.26
41624;BME280;27319;50.306;18.926;2023-02-28T00:16:57;99366.44;;;-0.48;76.75
41624;BME280;27319;50.306;18.926;2023-02-28T00:19:58;99366.50;;;-0.49;76.69
41624;BME280;27319;50.306;18.926;2023-02-28T00:23:12;99366.72;;;-0.54;76.37
41624;BME280;27319;50.306;18.926;2023-02-28T00:26:13;99366.78;;;-0.55;76.02
41624;BME280;27319;50.306;18.926;2023-02-28T00:29:14;99360.63;;;-0.54;76.60
41624;BME280;27319;50.306;18.926;2023-02-28T00:32:15;99366.25;;;-0.62;74.95
41624;BME280;27319;50.306;18.926;2023-02-28T00:35:16;99372.34;;;-0.61;75.17
41624;BME280;27319;50.306;18.926;2023-02-28T00:38:17;99367.09;;;-0.61;77.40
41624;BME280;27319;50.306;18.926;2023-02-28T00:41:18;99370.19;;;-0.70;74.88
41624;BME280;27319;50.306;18.926;2023-02-28T00:44:19;99364.19;;;-0.74;74.58
41624;BME280;27319;50.306;18.926;2023-02-28T00:47:22;99369.31;;;-0.71;77.34
41624;BME280;27319;50.306;18.926;2023-02-28T00:50:23;99375.16;;;-0.64;78.14
41624;BME280;27319;50.306;18.926;2023-02-28T00:53:24;99375.69;;;-0.58;79.11
41624;BME280;27319;50.306;18.926;2023-02-28T00:56:25;99378.56;;;-0.62;78.00
41624;BME280;27319;50.306;18.926;2023-02-28T00:59:27;99375.16;;;-0.64;77.07
41624;BME280;27319;50.306;18.926;2023-02-28T01:02:27;99384.84;;;-0.65;78.19
41624;BME280;27319;50.306;18.926;2023-02-28T01:05:28;99380.13;;;-0.58;79.04
41624;BME280;27319;50.306;18.926;2023-02-28T01:08:29;99379.22;;;-0.57;79.71
41624;BME280;27319;50.306;18.926;2023-02-28T01:11:31;99368.53;;;-0.54;79.88
41624;BME280;27319;50.306;18.926;2023-02-28T01:14:32;99380.91;;;-0.56;79.11
41624;BME280;27319;50.306;18.926;2023-02-28T01:17:33;99373.28;;;-0.62;78.56
41624;BME280;27319;50.306;18.926;2023-02-28T01:20:36;99375.00;;;-0.61;78.78
41624;BME280;27319;50.306;18.926;2023-02-28T01:23:39;99379.34;;;-0.60;77.90
41624;BME280;27319;50.306;18.926;2023-02-28T01:26:40;99375.69;;;-0.58;79.58
41624;BME280;27319;50.306;18.926;2023-02-28T01:29:41;99372.28;;;-0.60;78.99
41624;BME280;27319;50.306;18.926;2023-02-28T01:32:41;99375.94;;;-0.62;78.10
41624;BME280;27319;50.306;18.926;2023-02-28T01:35:42;99365.44;;;-0.64;79.30
41624;BME280;27319;50.306;18.926;2023-02-28T01:38:43;99367.72;;;-0.56;79.66
41624;BME280;27319;50.306;18.926;2023-02-28T01:41:45;99364.44;;;-0.61;78.85
41624;BME280;27319;50.306;18.926;2023-02-28T01:45:47;99367.53;;;-0.70;77.94
41624;BME280;27319;50.306;18.926;2023-02-28T01:48:34;99366.31;;;-0.63;78.16
41624;BME280;27319;50.306;18.926;2023-02-28T01:51:43;99361.16;;;-0.66;79.12
41624;BME280;27319;50.306;18.926;2023-02-28T01:54:54;99359.56;;;-0.69;77.91
41624;BME280;27319;50.306;18.926;2023-02-28T01:57:58;99354.78;;;-0.79;77.76
41624;BME280;27319;50.306;18.926;2023-02-28T02:01:01;99356.63;;;-0.81;78.25
41624;BME280;27319;50.306;18.926;2023-02-28T02:04:03;99358.91;;;-0.74;80.15
41624;BME280;27319;50.306;18.926;2023-02-28T02:07:05;99357.13;;;-0.73;80.15
41624;BME280;27319;50.306;18.926;2023-02-28T02:16:49;99347.22;;;-0.87;78.73
41624;BME280;27319;50.306;18.926;2023-02-28T02:30:27;99348.94;;;-0.86;80.49
41624;BME280;27319;50.306;18.926;2023-02-28T02:40:20;99345.44;;;-0.86;80.84
41624;BME280;27319;50.306;18.926;2023-02-28T02:46:47;99339.41;;;-0.88;80.78
41624;BME280;27319;50.306;18.926;2023-02-28T02:49:51;99341.47;;;-0.76;82.22
41624;BME280;27319;50.306;18.926;2023-02-28T02:52:56;99344.38;;;-0.82;81.89
41624;BME280;27319;50.306;18.926;2023-02-28T02:55:59;99343.09;;;-0.92;80.99
41624;BME280;27319;50.306;18.926;2023-02-28T02:59:03;99336.53;;;-1.02;80.64
41624;BME280;27319;50.306;18.926;2023-02-28T03:02:26;99340.03;;;-1.02;80.94
41624;BME280;27319;50.306;18.926;2023-02-28T03:06:07;99342.31;;;-1.13;80.95
41624;BME280;27319;50.306;18.926;2023-02-28T03:09:08;99349.16;;;-1.09;81.75
41624;BME280;27319;50.306;18.926;2023-02-28T03:12:11;99349.94;;;-1.07;82.20
41624;BME280;27319;50.306;18.926;2023-02-28T03:15:31;99351.56;;;-1.04;82.72
41624;BME280;27319;50.306;18.926;2023-02-28T03:28:40;99343.22;;;-0.95;84.41
41624;BME280;27319;50.306;18.926;2023-02-28T03:31:52;99343.78;;;-1.07;83.75
41624;BME280;27319;50.306;18.926;2023-02-28T03:35:02;99353.34;;;-1.23;81.85
41624;BME280;27319;50.306;18.926;2023-02-28T03:38:22;99360.16;;;-1.19;83.98
41624;BME280;27319;50.306;18.926;2023-02-28T03:41:31;99358.16;;;-1.14;84.77
41624;BME280;27319;50.306;18.926;2023-02-28T03:44:56;99365.69;;;-1.25;82.90
41624;BME280;27319;50.306;18.926;2023-02-28T03:48:23;99363.00;;;-1.24;84.39
41624;BME280;27319;50.306;18.926;2023-02-28T03:51:27;99364.38;;;-1.35;83.21
41624;BME280;27319;50.306;18.926;2023-02-28T03:54:32;99370.53;;;-1.35;84.23
41624;BME280;27319;50.306;18.926;2023-02-28T03:58:05;99360.38;;;-1.24;85.70
41624;BME280;27319;50.306;18.926;2023-02-28T04:01:12;99366.75;;;-1.29;85.02
41624;BME280;27319;50.306;18.926;2023-02-28T04:04:16;99367.63;;;-1.29;85.43
41624;BME280;27319;50.306;18.926;2023-02-28T04:07:18;99369.91;;;-1.41;85.07
41624;BME280;27319;50.306;18.926;2023-02-28T04:10:19;99371.50;;;-1.37;85.31
41624;BME280;27319;50.306;18.926;2023-02-28T04:13:20;99374.47;;;-1.45;84.84
41624;BME280;27319;50.306;18.926;2023-02-28T04:16:21;99379.47;;;-1.39;85.32
41624;BME280;27319;50.306;18.926;2023-02-28T04:19:22;99379.91;;;-1.29;86.54
41624;BME280;27319;50.306;18.926;2023-02-28T04:22:23;99382.19;;;-1.40;84.97
41624;BME280;27319;50.306;18.926;2023-02-28T04:25:27;99380.88;;;-1.50;84.87
41624;BME280;27319;50.306;18.926;2023-02-28T04:28:28;99381.91;;;-1.54;85.43
41624;BME280;27319;50.306;18.926;2023-02-28T04:31:29;99376.81;;;-1.57;86.16
41624;BME280;27319;50.306;18.926;2023-02-28T04:34:31;99391.94;;;-1.62;85.50
41624;BME280;27319;50.306;18.926;2023-02-28T04:37:32;99394.00;;;-1.70;85.26
41624;BME280;27319;50.306;18.926;2023-02-28T04:40:35;99398.44;;;-1.71;84.82
41624;BME280;27319;50.306;18.926;2023-02-28T04:43:36;99394.63;;;-1.84;84.17
41624;BME280;27319;50.306;18.926;2023-02-28T04:46:37;99398.28;;;-1.68;86.72
41624;BME280;27319;50.306;18.926;2023-02-28T04:49:38;99406.13;;;-1.66;86.90
41624;BME280;27319;50.306;18.926;2023-02-28T04:52:40;99405.72;;;-1.77;85.94
41624;BME280;27319;50.306;18.926;2023-02-28T04:55:40;99408.34;;;-1.77;85.58
41624;BME280;27319;50.306;18.926;2023-02-28T04:58:41;99406.78;;;-1.61;87.35
41624;BME280;27319;50.306;18.926;2023-02-28T05:01:46;99402.66;;;-1.47;88.11
41624;BME280;27319;50.306;18.926;2023-02-28T05:04:48;99398.69;;;-1.57;87.56
41624;BME280;27319;50.306;18.926;2023-02-28T05:07:48;99399.94;;;-1.85;84.01
41624;BME280;27319;50.306;18.926;2023-02-28T05:10:50;99412.13;;;-1.83;85.93
41624;BME280;27319;50.306;18.926;2023-02-28T05:13:51;99407.13;;;-1.69;87.78
41624;BME280;27319;50.306;18.926;2023-02-28T05:16:52;99410.28;;;-1.61;88.16
41624;BME280;27319;50.306;18.926;2023-02-28T05:19:53;99405.59;;;-1.74;87.29
41624;BME280;27319;50.306;18.926;2023-02-28T05:22:54;99406.66;;;-1.78;86.65
41624;BME280;27319;50.306;18.926;2023-02-28T05:25:56;99419.28;;;-1.86;86.61
41624;BME280;27319;50.306;18.926;2023-02-28T05:28:57;99404.97;;;-2.01;85.48
41624;BME280;27319;50.306;18.926;2023-02-28T05:31:58;99415.31;;;-1.96;86.25
41624;BME280;27319;50.306;18.926;2023-02-28T05:34:59;99420.69;;;-1.99;86.66
41624;BME280;27319;50.306;18.926;2023-02-28T05:38:19;99423.56;;;-2.05;85.91
41624;BME280;27319;50.306;18.926;2023-02-28T05:42:20;99430.91;;;-2.13;85.56
41624;BME280;27319;50.306;18.926;2023-02-28T05:46:24;99429.06;;;-2.11;85.89
41624;BME280;27319;50.306;18.926;2023-02-28T05:50:25;99432.63;;;-2.12;85.89
41624;BME280;27319;50.306;18.926;2023-02-28T05:54:26;99430.19;;;-2.17;85.84
41624;BME280;27319;50.306;18.926;2023-02-28T05:58:27;99431.69;;;-2.11;86.46
41624;BME280;27319;50.306;18.926;2023-02-28T06:02:30;99445.09;;;-2.17;86.30
41624;BME280;27319;50.306;18.926;2023-02-28T06:06:11;99450.84;;;-2.29;85.33
41624;BME280;27319;50.306;18.926;2023-02-28T06:09:12;99454.94;;;-2.22;85.56
41624;BME280;27319;50.306;18.926;2023-02-28T06:12:14;99456.72;;;-2.23;85.49
41624;BME280;27319;50.306;18.926;2023-02-28T06:15:15;99450.25;;;-2.14;85.78
41624;BME280;27319;50.306;18.926;2023-02-28T06:18:37;99457.31;;;-2.16;85.82
41624;BME280;27319;50.306;18.926;2023-02-28T06:22:38;99459.78;;;-2.12;85.33
41624;BME280;27319;50.306;18.926;2023-02-28T06:26:41;99464.13;;;-2.11;84.75
41624;BME280;27319;50.306;18.926;2023-02-28T06:30:45;99471.53;;;-2.20;84.04
41624;BME280;27319;50.306;18.926;2023-02-28T06:34:01;99478.13;;;-2.10;85.21
41624;BME280;27319;50.306;18.926;2023-02-28T06:37:22;99471.88;;;-2.08;85.38
41624;BME280;27319;50.306;18.926;2023-02-28T06:41:24;99471.28;;;-2.14;83.89
41624;BME280;27319;50.306;18.926;2023-02-28T06:45:24;99475.31;;;-2.06;84.44
41624;BME280;27319;50.306;18.926;2023-02-28T06:49:25;99476.84;;;-2.00;84.66
41624;BME280;27319;50.306;18.926;2023-02-28T06:53:25;99471.38;;;-1.96;83.81
41624;BME280;27319;50.306;18.926;2023-02-28T06:57:27;99474.97;;;-1.55;84.45
41624;BME280;27319;50.306;18.926;2023-02-28T07:01:27;99475.78;;;-1.75;82.28
41624;BME280;27319;50.306;18.926;2023-02-28T07:05:08;99487.09;;;-1.73;82.44
41624;BME280;27319;50.306;18.926;2023-02-28T07:08:09;99488.91;;;-1.73;82.87
41624;BME280;27319;50.306;18.926;2023-02-28T07:11:10;99492.19;;;-1.68;81.07
41624;BME280;27319;50.306;18.926;2023-02-28T07:14:31;99490.34;;;-1.66;82.97
41624;BME280;27319;50.306;18.926;2023-02-28T07:18:12;99487.66;;;-1.65;81.77
41624;BME280;27319;50.306;18.926;2023-02-28T07:21:13;99493.50;;;-1.58;82.86
41624;BME280;27319;50.306;18.926;2023-02-28T07:24:34;99494.28;;;-1.55;82.71
41624;BME280;27319;50.306;18.926;2023-02-28T07:28:35;99486.16;;;-1.50;82.12
41624;BME280;27319;50.306;18.926;2023-02-28T07:32:35;99498.41;;;-1.49;81.35
41624;BME280;27319;50.306;18.926;2023-02-28T07:36:36;99491.19;;;-1.44;82.24
41624;BME280;27319;50.306;18.926;2023-02-28T07:40:37;99494.34;;;-1.36;81.50
41624;BME280;27319;50.306;18.926;2023-02-28T07:44:38;99499.59;;;-1.36;82.41
41624;BME280;27319;50.306;18.926;2023-02-28T07:48:39;99493.63;;;-1.20;82.42
41624;BME280;27319;50.306;18.926;2023-02-28T07:52:40;99487.72;;;-1.25;81.69
41624;BME280;27319;50.306;18.926;2023-02-28T07:56:41;99492.00;;;-1.22;81.61
41624;BME280;27319;50.306;18.926;2023-02-28T08:00:22;99496.19;;;-1.18;80.58
41624;BME280;27319;50.306;18.926;2023-02-28T08:03:24;99500.16;;;-1.08;79.36
41624;BME280;27319;50.306;18.926;2023-02-28T08:06:45;99499.94;;;-1.04;79.96
41624;BME280;27319;50.306;18.926;2023-02-28T08:10:46;99493.56;;;-0.98;79.31
41624;BME280;27319;50.306;18.926;2023-02-28T08:14:27;99496.00;;;-0.94;80.26
41624;BME280;27319;50.306;18.926;2023-02-28T08:17:28;99494.88;;;-0.88;79.34
41624;BME280;27319;50.306;18.926;2023-02-28T08:20:29;99495.50;;;-0.83;78.74
41624;BME280;27319;50.306;18.926;2023-02-28T08:23:30;99491.25;;;-0.86;79.43
41624;BME280;27319;50.306;18.926;2023-02-28T08:26:50;99496.59;;;-0.87;79.07
41624;BME280;27319;50.306;18.926;2023-02-28T08:30:51;99499.59;;;-0.76;77.43
41624;BME280;27319;50.306;18.926;2023-02-28T08:34:52;99502.09;;;-0.73;78.30
41624;BME280;27319;50.306;18.926;2023-02-28T08:38:53;99505.09;;;-0.62;76.69
41624;BME280;27319;50.306;18.926;2023-02-28T08:42:54;99496.25;;;-0.61;77.69
41624;BME280;27319;50.306;18.926;2023-02-28T08:46:55;99506.91;;;-0.44;77.33
41624;BME280;27319;50.306;18.926;2023-02-28T08:51:15;99498.88;;;-0.41;75.95
41624;BME280;27319;50.306;18.926;2023-02-28T08:54:59;99503.41;;;-0.27;77.10
41624;BME280;27319;50.306;18.926;2023-02-28T08:58:40;99497.09;;;-0.04;74.90
41624;BME280;27319;50.306;18.926;2023-02-28T09:02:21;99497.22;;;0.11;73.80
41624;BME280;27319;50.306;18.926;2023-02-28T09:05:21;99496.78;;;0.20;73.04
41624;BME280;27319;50.306;18.926;2023-02-28T09:08:44;99505.22;;;0.45;72.58
41624;BME280;27319;50.306;18.926;2023-02-28T09:12:27;99508.00;;;0.59;70.78
41624;BME280;27319;50.306;18.926;2023-02-28T09:15:52;99511.97;;;0.68;70.56
41624;BME280;27319;50.306;18.926;2023-02-28T09:19:31;99512.22;;;0.80;69.84
41624;BME280;27319;50.306;18.926;2023-02-28T09:22:52;99510.91;;;0.72;69.17
41624;BME280;27319;50.306;18.926;2023-02-28T09:26:17;99507.97;;;0.78;68.49
41624;BME280;27319;50.306;18.926;2023-02-28T09:29:38;99507.25;;;0.74;69.09
41624;BME280;27319;50.306;18.926;2023-02-28T09:33:39;99510.84;;;0.73;68.10
41624;BME280;27319;50.306;18.926;2023-02-28T09:37:40;99512.22;;;0.80;68.76
41624;BME280;27319;50.306;18.926;2023-02-28T09:41:41;99516.13;;;0.73;69.63
41624;BME280;27319;50.306;18.926;2023-02-28T09:45:42;99509.22;;;0.71;67.00
41624;BME280;27319;50.306;18.926;2023-02-28T09:49:43;99506.81;;;0.83;68.71
41624;BME280;27319;50.306;18.926;2023-02-28T09:53:46;99517.66;;;0.94;69.01
41624;BME280;27319;50.306;18.926;2023-02-28T09:57:59;99515.19;;;1.08;68.53
41624;BME280;27319;50.306;18.926;2023-02-28T10:02:21;99520.25;;;0.96;66.97
41624;BME280;27319;50.306;18.926;2023-02-28T10:06:20;99522.63;;;1.00;67.22
41624;BME280;27319;50.306;18.926;2023-02-28T10:10:07;99513.69;;;0.86;65.99
41624;BME280;27319;50.306;18.926;2023-02-28T10:14:26;99518.91;;;0.87;67.92
41624;BME280;27319;50.306;18.926;2023-02-28T10:18:29;99509.22;;;1.05;67.85
41624;BME280;27319;50.306;18.926;2023-02-28T10:25:55;99506.56;;;1.05;66.44
41624;BME280;27319;50.306;18.926;2023-02-28T10:29:17;99500.56;;;1.18;67.41
41624;BME280;27319;50.306;18.926;2023-02-28T10:33:20;99501.00;;;1.26;65.85
41624;BME280;27319;50.306;18.926;2023-02-28T10:37:19;99500.38;;;1.38;66.48
41624;BME280;27319;50.306;18.926;2023-02-28T10:43:25;99496.94;;;1.69;64.49
41624;BME280;27319;50.306;18.926;2023-02-28T10:46:25;99497.38;;;1.77;64.07
41624;BME280;27319;50.306;18.926;2023-02-28T10:49:27;99499.44;;;1.87;64.89
41624;BME280;27319;50.306;18.926;2023-02-28T10:52:52;99497.06;;;1.98;63.89
41624;BME280;27319;50.306;18.926;2023-02-28T11:01:08;99486.97;;;2.36;65.24
41624;BME280;27319;50.306;18.926;2023-02-28T11:09:16;99480.75;;;2.21;61.18
41624;BME280;27319;50.306;18.926;2023-02-28T11:13:12;99482.19;;;2.27;63.49
41624;BME280;27319;50.306;18.926;2023-02-28T11:17:13;99474.06;;;2.14;64.11
41624;BME280;27319;50.306;18.926;2023-02-28T11:21:15;99474.50;;;2.22;64.24
41624;BME280;27319;50.306;18.926;2023-02-28T11:25:17;99468.53;;;2.03;62.98
41624;BME280;27319;50.306;18.926;2023-02-28T11:29:29;99458.75;;;2.50;61.86
41624;BME280;27319;50.306;18.926;2023-02-28T11:37:22;99453.00;;;2.13;63.54
41624;BME280;27319;50.306;18.926;2023-02-28T11:48:23;99446.25;;;2.52;62.17
41624;BME280;27319;50.306;18.926;2023-02-28T11:52:36;99460.97;;;3.85;61.01
41624;BME280;27319;50.306;18.926;2023-02-28T11:56:23;99452.09;;;5.17;55.84
41624;BME280;27319;50.306;18.926;2023-02-28T12:10:45;99448.97;;;7.27;47.84
41624;BME280;27319;50.306;18.926;2023-02-28T12:14:22;99442.69;;;6.93;50.45
41624;BME280;27319;50.306;18.926;2023-02-28T12:28:04;99442.81;;;8.03;45.08
41624;BME280;27319;50.306;18.926;2023-02-28T12:32:13;99438.69;;;7.77;43.88
41624;BME280;27319;50.306;18.926;2023-02-28T12:36:14;99435.41;;;8.60;44.94
41624;BME280;27319;50.306;18.926;2023-02-28T12:40:17;99432.03;;;8.47;44.18
41624;BME280;27319;50.306;18.926;2023-02-28T12:44:21;99434.56;;;8.60;45.77
41624;BME280;27319;50.306;18.926;2023-02-28T12:48:04;99428.50;;;8.58;46.61
41624;BME280;27319;50.306;18.926;2023-02-28T12:51:26;99418.22;;;8.94;44.92
41624;BME280;27319;50.306;18.926;2023-02-28T12:58:37;99411.84;;;9.06;43.03
41624;BME280;27319;50.306;18.926;2023-02-28T13:09:12;99423.78;;;8.82;44.32
41624;BME280;27319;50.306;18.926;2023-02-28T13:12:34;99418.38;;;8.61;44.03
41624;BME280;27319;50.306;18.926;2023-02-28T13:16:49;99414.63;;;8.53;43.82
41624;BME280;27319;50.306;18.926;2023-02-28T13:20:54;99415.66;;;8.19;44.55
41624;BME280;27319;50.306;18.926;2023-02-28T13:24:37;99415.28;;;8.34;46.90
41624;BME280;27319;50.306;18.926;2023-02-28T13:43:16;99395.56;;;7.27;47.51
41624;BME280;27319;50.306;18.926;2023-02-28T13:54:24;99398.38;;;7.80;47.60
41624;BME280;27319;50.306;18.926;2023-02-28T14:09:27;99385.50;;;7.41;46.75
41624;BME280;27319;50.306;18.926;2023-02-28T14:15:57;99382.31;;;7.36;46.61
41624;BME280;27319;50.306;18.926;2023-02-28T14:19:02;99378.19;;;7.54;47.03
41624;BME280;27319;50.306;18.926;2023-02-28T14:22:43;99362.97;;;7.00;47.24
41624;BME280;27319;50.306;18.926;2023-02-28T14:26:56;99367.38;;;7.12;47.72
41624;BME280;27319;50.306;18.926;2023-02-28T14:30:29;99366.47;;;6.20;49.16
41624;BME280;27319;50.306;18.926;2023-02-28T14:38:08;99354.34;;;5.19;54.47
41624;BME280;27319;50.306;18.926;2023-02-28T14:41:38;99353.41;;;4.95;54.04
41624;BME280;27319;50.306;18.926;2023-02-28T14:45:38;99343.47;;;4.47;55.11
41624;BME280;27319;50.306;18.926;2023-02-28T14:49:42;99346.97;;;3.82;55.17
41624;BME280;27319;50.306;18.926;2023-02-28T14:53:39;99339.94;;;3.95;57.17
41624;BME280;27319;50.306;18.926;2023-02-28T14:57:41;99345.19;;;3.83;56.53
41624;BME280;27319;50.306;18.926;2023-02-28T15:01:41;99338.88;;;3.71;56.65
41624;BME280;27319;50.306;18.926;2023-02-28T15:05:50;99341.66;;;3.56;57.73
41624;BME280;27319;50.306;18.926;2023-02-28T15:09:13;99339.28;;;3.51;59.73
41624;BME280;27319;50.306;18.926;2023-02-28T15:12:14;99344.72;;;3.36;58.50
41624;BME280;27319;50.306;18.926;2023-02-28T15:15:16;99343.88;;;3.07;58.58
41624;BME280;27319;50.306;18.926;2023-02-28T15:18:43;99329.88;;;3.05;61.22
41624;BME280;27319;50.306;18.926;2023-02-28T15:22:40;99341.16;;;3.09;61.32
41624;BME280;27319;50.306;18.926;2023-02-28T15:25:41;99334.06;;;3.09;62.22
41624;BME280;27319;50.306;18.926;2023-02-28T15:28:43;99337.47;;;2.97;62.34
41624;BME280;27319;50.306;18.926;2023-02-28T15:32:05;99337.34;;;2.85;60.63
41624;BME280;27319;50.306;18.926;2023-02-28T15:35:51;99338.41;;;2.82;62.11
41624;BME280;27319;50.306;18.926;2023-02-28T15:39:52;99337.91;;;2.76;62.85
41624;BME280;27319;50.306;18.926;2023-02-28T15:47:52;99340.78;;;2.43;63.05
41624;BME280;27319;50.306;18.926;2023-02-28T15:51:53;99329.53;;;2.40;63.89
41624;BME280;27319;50.306;18.926;2023-02-28T15:55:34;99332.47;;;2.35;62.92
41624;BME280;27319;50.306;18.926;2023-02-28T15:58:37;99337.94;;;2.32;64.61
41624;BME280;27319;50.306;18.926;2023-02-28T16:02:17;99330.94;;;2.31;64.76
41624;BME280;27319;50.306;18.926;2023-02-28T16:06:09;99333.56;;;2.17;63.17
41624;BME280;27319;50.306;18.926;2023-02-28T16:09:15;99329.94;;;2.18;65.10
41624;BME280;27319;50.306;18.926;2023-02-28T16:12:26;99328.63;;;2.25;65.87
41624;BME280;27319;50.306;18.926;2023-02-28T16:15:30;99337.91;;;2.18;65.32
41624;BME280;27319;50.306;18.926;2023-02-28T16:18:32;99338.34;;;2.11;64.89
41624;BME280;27319;50.306;18.926;2023-02-28T16:21:32;99335.25;;;2.18;66.72
41624;BME280;27319;50.306;18.926;2023-02-28T16:24:34;99340.53;;;2.18;67.35
41624;BME280;27319;50.306;18.926;2023-02-28T16:27:37;99333.13;;;2.09;66.85
41624;BME280;27319;50.306;18.926;2023-02-28T16:30:38;99339.22;;;2.11;67.11
41624;BME280;27319;50.306;18.926;2023-02-28T16:33:39;99342.09;;;2.07;68.44
41624;BME280;27319;50.306;18.926;2023-02-28T16:36:40;99344.03;;;1.89;68.44
41624;BME280;27319;50.306;18.926;2023-02-28T16:39:43;99344.56;;;1.65;65.19
41624;BME280;27319;50.306;18.926;2023-02-28T16:42:45;99347.72;;;1.71;69.53
41624;BME280;27319;50.306;18.926;2023-02-28T16:45:46;99348.47;;;1.73;69.47
41624;BME280;27319;50.306;18.926;2023-02-28T16:48:48;99346.50;;;1.77;70.17
41624;BME280;27319;50.306;18.926;2023-02-28T16:51:52;99351.31;;;1.70;69.75
41624;BME280;27319;50.306;18.926;2023-02-28T16:54:53;99349.38;;;1.58;68.61
41624;BME280;27319;50.306;18.926;2023-02-28T16:57:57;99356.44;;;1.58;70.53
41624;BME280;27319;50.306;18.926;2023-02-28T17:01:18;99357.88;;;1.63;71.03
41624;BME280;27319;50.306;18.926;2023-02-28T17:04:43;99358.06;;;1.60;72.34
41624;BME280;27319;50.306;18.926;2023-02-28T17:07:45;99364.63;;;1.53;72.20
41624;BME280;27319;50.306;18.926;2023-02-28T17:10:46;99363.25;;;1.46;71.66
41624;BME280;27319;50.306;18.926;2023-02-28T17:13:47;99374.75;;;1.30;70.15
41624;BME280;27319;50.306;18.926;2023-02-28T17:17:09;99377.16;;;1.34;71.91
41624;BME280;27319;50.306;18.926;2023-02-28T17:20:49;99374.84;;;1.28;73.01
41624;BME280;27319;50.306;18.926;2023-02-28T17:23:50;99370.28;;;1.15;72.02
41624;BME280;27319;50.306;18.926;2023-02-28T17:26:51;99371.91;;;1.02;69.95
41624;BME280;27319;50.306;18.926;2023-02-28T17:29:52;99376.78;;;1.09;74.17
41624;BME280;27319;50.306;18.926;2023-02-28T17:33:14;99381.03;;;0.96;71.97
41624;BME280;27319;50.306;18.926;2023-02-28T17:37:14;99381.53;;;1.03;73.69
41624;BME280;27319;50.306;18.926;2023-02-28T17:41:15;99376.31;;;0.69;69.66
41624;BME280;27319;50.306;18.926;2023-02-28T17:45:16;99377.41;;;0.82;73.32
41624;BME280;27319;50.306;18.926;2023-02-28T17:49:05;99381.13;;;0.78;72.83
41624;BME280;27319;50.306;18.926;2023-02-28T17:52:06;99376.53;;;0.81;75.24
41624;BME280;27319;50.306;18.926;2023-02-28T17:55:09;99373.31;;;0.92;75.42
41624;BME280;27319;50.306;18.926;2023-02-28T17:58:30;99381.03;;;0.96;76.17
41624;BME280;27319;50.306;18.926;2023-02-28T18:02:31;99371.28;;;0.64;72.96
41624;BME280;27319;50.306;18.926;2023-02-28T18:06:22;99377.88;;;0.73;76.00
41624;BME280;27319;50.306;18.926;2023-02-28T18:09:24;99375.16;;;0.57;74.73
41624;BME280;27319;50.306;18.926;2023-02-28T18:12:25;99376.25;;;0.53;74.37
41624;BME280;27319;50.306;18.926;2023-02-28T18:15:46;99379.69;;;0.55;76.00
41624;BME280;27319;50.306;18.926;2023-02-28T18:19:47;99377.25;;;0.68;77.45
41624;BME280;27319;50.306;18.926;2023-02-28T18:23:28;99379.81;;;0.69;77.69
41624;BME280;27319;50.306;18.926;2023-02-28T18:26:28;99373.91;;;0.64;77.60
41624;BME280;27319;50.306;18.926;2023-02-28T18:29:49;99375.53;;;0.67;77.69
41624;BME280;27319;50.306;18.926;2023-02-28T18:33:50;99363.84;;;0.55;77.58
41624;BME280;27319;50.306;18.926;2023-02-28T18:37:51;99362.59;;;0.45;77.29
41624;BME280;27319;50.306;18.926;2023-02-28T18:41:32;99371.84;;;0.54;78.94
41624;BME280;27319;50.306;18.926;2023-02-28T18:44:53;99379.50;;;0.58;78.16
41624;BME280;27319;50.306;18.926;2023-02-28T18:48:54;99373.78;;;0.50;78.47
41624;BME280;27319;50.306;18.926;2023-02-28T18:52:55;99375.50;;;0.51;78.67
41624;BME280;27319;50.306;18.926;2023-02-28T18:56:55;99370.06;;;0.37;78.48
41624;BME280;27319;50.306;18.926;2023-02-28T19:00:56;99371.47;;;0.27;77.15
41624;BME280;27319;50.306;18.926;2023-02-28T19:04:40;99372.84;;;0.17;77.79
41624;BME280;27319;50.306;18.926;2023-02-28T19:07:41;99369.34;;;0.34;79.67
41624;BME280;27319;50.306;18.926;2023-02-28T19:11:11;99371.09;;;0.35;79.78
41624;BME280;27319;50.306;18.926;2023-02-28T19:15:03;99352.59;;;0.35;80.12
41624;BME280;27319;50.306;18.926;2023-02-28T19:19:03;99359.59;;;0.36;80.12
41624;BME280;27319;50.306;18.926;2023-02-28T19:23:00;99361.91;;;0.25;79.88
41624;BME280;27319;50.306;18.926;2023-02-28T19:27:00;99362.69;;;0.27;80.34
41624;BME280;27319;50.306;18.926;2023-02-28T19:31:11;99360.84;;;0.29;80.68
41624;BME280;27319;50.306;18.926;2023-02-28T19:35:11;99366.19;;;0.27;80.80
41624;BME280;27319;50.306;18.926;2023-02-28T19:39:12;99366.81;;;0.15;80.15
41624;BME280;27319;50.306;18.926;2023-02-28T19:43:12;99369.50;;;0.14;80.69
41624;BME280;27319;50.306;18.926;2023-02-28T19:46:53;99359.19;;;0.09;80.85
41624;BME280;27319;50.306;18.926;2023-02-28T19:49:55;99357.88;;;0.01;80.42
41624;BME280;27319;50.306;18.926;2023-02-28T19:53:16;99370.19;;;0.00;81.13
41624;BME280;27319;50.306;18.926;2023-02-28T19:57:16;99363.97;;;0.01;81.77
41624;BME280;27319;50.306;18.926;2023-02-28T20:01:17;99365.91;;;-0.02;81.55
41624;BME280;27319;50.306;18.926;2023-02-28T20:05:18;99370.81;;;-0.12;81.39
41624;BME280;27319;50.306;18.926;2023-02-28T20:08:59;99363.81;;;-0.13;81.61
41624;BME280;27319;50.306;18.926;2023-02-28T20:12:19;99371.66;;;-0.11;82.06
41624;BME280;27319;50.306;18.926;2023-02-28T20:16:20;99370.22;;;-0.18;81.81
41624;BME280;27319;50.306;18.926;2023-02-28T20:20:22;99374.50;;;-0.16;81.74
41624;BME280;27319;50.306;18.926;2023-02-28T20:24:22;99374.09;;;-0.25;81.87
41624;BME280;27319;50.306;18.926;2023-02-28T20:28:23;99375.56;;;-0.36;81.09
41624;BME280;27319;50.306;18.926;2023-02-28T20:32:24;99367.03;;;-0.60;80.20
41624;BME280;27319;50.306;18.926;2023-02-28T20:36:24;99368.25;;;-0.48;82.60